地図

経路データ

SID SEASON NUMBER BASIN SUBBASIN NAME ISO_TIME NATURE LAT LON WMO_WIND WMO_PRES WMO_AGENCY TRACK_TYPE DIST2LAND LANDFALL IFLAG USA_AGENCY USA_ATCF_ID USA_LAT USA_LON USA_RECORD USA_STATUS USA_WIND USA_PRES USA_SSHS USA_R34_NE USA_R34_SE USA_R34_SW USA_R34_NW USA_R50_NE USA_R50_SE USA_R50_SW USA_R50_NW USA_R64_NE USA_R64_SE USA_R64_SW USA_R64_NW USA_POCI USA_ROCI USA_RMW USA_EYE TOKYO_LAT TOKYO_LON TOKYO_GRADE TOKYO_WIND TOKYO_PRES TOKYO_R50_DIR TOKYO_R50_LONG TOKYO_R50_SHORT TOKYO_R30_DIR TOKYO_R30_LONG TOKYO_R30_SHORT TOKYO_LAND CMA_LAT CMA_LON CMA_CAT CMA_WIND CMA_PRES HKO_LAT HKO_LON HKO_CAT HKO_WIND HKO_PRES NEWDELHI_LAT NEWDELHI_LON NEWDELHI_GRADE NEWDELHI_WIND NEWDELHI_PRES NEWDELHI_CI NEWDELHI_DP NEWDELHI_POCI REUNION_LAT REUNION_LON REUNION_TYPE REUNION_WIND REUNION_PRES REUNION_TNUM REUNION_CI REUNION_RMW REUNION_R34_NE REUNION_R34_SE REUNION_R34_SW REUNION_R34_NW REUNION_R50_NE REUNION_R50_SE REUNION_R50_SW REUNION_R50_NW REUNION_R64_NE REUNION_R64_SE REUNION_R64_SW REUNION_R64_NW BOM_LAT BOM_LON BOM_TYPE BOM_WIND BOM_PRES BOM_TNUM BOM_CI BOM_RMW BOM_R34_NE BOM_R34_SE BOM_R34_SW BOM_R34_NW BOM_R50_NE BOM_R50_SE BOM_R50_SW BOM_R50_NW BOM_R64_NE BOM_R64_SE BOM_R64_SW BOM_R64_NW BOM_ROCI BOM_POCI BOM_EYE BOM_POS_METHOD BOM_PRES_METHOD NADI_LAT NADI_LON NADI_CAT NADI_WIND NADI_PRES WELLINGTON_LAT WELLINGTON_LON WELLINGTON_WIND WELLINGTON_PRES DS824_LAT DS824_LON DS824_STAGE DS824_WIND DS824_PRES TD9636_LAT TD9636_LON TD9636_STAGE TD9636_WIND TD9636_PRES TD9635_LAT TD9635_LON TD9635_WIND TD9635_PRES TD9635_ROCI NEUMANN_LAT NEUMANN_LON NEUMANN_CLASS NEUMANN_WIND NEUMANN_PRES MLC_LAT MLC_LON MLC_CLASS MLC_WIND MLC_PRES USA_GUST BOM_GUST BOM_GUST_PER REUNION_GUST REUNION_GUST_PER USA_SEAHGT USA_SEARAD_NE USA_SEARAD_SE USA_SEARAD_SW USA_SEARAD_NW STORM_SPEED STORM_DIR
1955245N21090 1955 66 NI BB NOT_NAMED 1955-09-01 18:00:00 TS 21.2000 90.2000 main 67 67 O________O____ jtwc_io IO061955 21.2000 90.2000 -1 21.2000 90.2000 TC 1 272
1955245N21090 1955 66 NI BB NOT_NAMED 1955-09-01 21:00:00 TS 21.2025 90.1275 main 67 67 P________P____ IO061955 21.2025 90.1275 -1 21.2025 90.1275 TC 2 270
1955245N21090 1955 66 NI BB NOT_NAMED 1955-09-02 00:00:00 TS 21.2000 90.0000 main 67 67 O________O____ jtwc_io IO061955 21.2000 90.0000 -1 21.2000 90.0000 TC 25 3 268
1955245N21090 1955 66 NI BB NOT_NAMED 1955-09-02 03:00:00 TS 21.1933 89.7822 main 67 56 P________PO___ IO061955 21.1925 89.7800 -1 21.1925 89.7800 TC 30 21.2000 89.8000 1 5 270
1955245N21090 1955 66 NI BB NOT_NAMED 1955-09-02 06:00:00 TS 21.2032 89.4991 main 56 45 O________OP___ jtwc_io IO061955 21.2000 89.5000 -1 21.2000 89.5000 TC 35 21.2161 89.4954 1 5 276
1955245N21090 1955 66 NI BB NOT_NAMED 1955-09-02 09:00:00 TS 21.2460 89.2035 main 45 33 P________PP___ IO061955 21.2500 89.2076 -1 21.2500 89.2076 TC 35 21.2356 89.1926 1 6 279
1955245N21090 1955 66 NI BB NOT_NAMED 1955-09-02 12:00:00 TS 21.2874 88.8978 main 33 33 O________OP___ jtwc_io IO061955 21.3000 88.9000 -1 21.3000 88.9000 TC 35 21.2622 88.8935 1 6 275
1955245N21090 1955 66 NI BB NOT_NAMED 1955-09-02 15:00:00 TS 21.2950 88.5999 main 35 33 P________PO___ IO061955 21.2924 88.5999 -1 21.2924 88.5999 TC 35 21.3000 88.6000 3 6 273
1955245N21090 1955 66 NI BB NOT_NAMED 1955-09-02 18:00:00 TS 21.3174 88.3040 main 33 22 O________OP___ jtwc_io IO061955 21.3000 88.3000 -1 21.3000 88.3000 TC 35 21.3522 88.3120 3 6 280
1955245N21090 1955 66 NI BB NOT_NAMED 1955-09-02 21:00:00 TS 21.3965 88.0075 main 30 22 P________PP___ IO061955 21.3849 88.0001 -1 21.3849 88.0001 TC 30 21.4195 88.0222 3 6 288
1955245N21090 1955 66 NI BB NOT_NAMED 1955-09-03 00:00:00 TS 21.5007 87.7071 main 22 0 O________OP___ jtwc_io IO061955 21.5000 87.7000 -1 21.5000 87.7000 TC 25 21.5021 87.7213 3 6 290
1955245N21090 1955 66 NI BB NOT_NAMED 1955-09-03 03:00:00 TS 21.5949 87.4099 main 0 0 P________PO___ IO061955 21.5924 87.4149 -1 21.5924 87.4149 TC 25 21.6000 87.4000 1 6 289
1955245N21090 1955 66 NI BB NOT_NAMED 1955-09-03 06:00:00 TS 21.7035 87.0835 main 0 0 O________OP___ jtwc_io IO061955 21.7000 87.1000 -1 21.7000 87.1000 TC 25 21.7105 87.0506 1 7 291
1955245N21090 1955 66 NI BB NOT_NAMED 1955-09-03 09:00:00 TS 21.8449 86.7034 main 0 0 P________PP___ IO061955 21.8500 86.7151 -1 21.8500 86.7151 TC 25 21.8348 86.6800 1 8 291
1955245N21090 1955 66 NI BB NOT_NAMED 1955-09-03 12:00:00 TS 21.9889 86.2981 main 0 0 O________OP___ jtwc_io IO061955 22.0000 86.3000 -1 22.0000 86.3000 TC 25 21.9667 86.2943 1 8 289
1955245N21090 1955 66 NI BB NOT_NAMED 1955-09-03 15:00:00 TS 22.1000 85.8949 main 0 0 P________PO___ IO061955 22.1000 85.8923 -1 22.1000 85.8923 TC 25 22.1000 85.9000 1 8 287
1955245N21090 1955 66 NI BB NOT_NAMED 1955-09-03 18:00:00 TS 22.2053 85.5157 main 0 0 O________OP___ jtwc_io IO061955 22.2000 85.5000 -1 22.2000 85.5000 TC 25 22.2159 85.5471 1 7 290
1955245N21090 1955 66 NI BB NOT_NAMED 1955-09-03 21:00:00 TS 22.3442 85.1754 main 0 0 P________PP___ IO061955 22.3496 85.1724 -1 22.3496 85.1724 TC 25 22.3334 85.1814 1 7 293
1955245N21090 1955 66 NI BB NOT_NAMED 1955-09-04 00:00:00 TS 22.4864 84.7917 main 0 0 O________OP___ jtwc_io IO061955 22.5000 84.8000 -1 22.5000 84.8000 TC 25 22.4593 84.7750 1 9 287
1955245N21090 1955 66 NI BB NOT_NAMED 1955-09-04 03:00:00 TS 22.5949 84.2964 main 0 0 P________PO___ IO061955 22.5924 84.2947 -1 22.5924 84.2947 TC 25 22.6000 84.3000 1 10 283
1955245N21090 1955 66 NI BB NOT_NAMED 1955-09-04 06:00:00 TS 22.7177 83.7046 main 0 0 O________OP___ jtwc_io IO061955 22.7000 83.7000 -1 22.7000 83.7000 TC 25 22.7532 83.7137 1 12 285
1955245N21090 1955 66 NI BB NOT_NAMED 1955-09-04 09:00:00 TS 22.8968 83.0683 main 0 0 P________PP___ IO061955 22.8848 83.0725 -1 22.8848 83.0725 TC 25 22.9209 83.0598 1 13 288
1955245N21090 1955 66 NI BB NOT_NAMED 1955-09-04 12:00:00 TS 23.1010 82.3920 main 0 0 O________OP___ jtwc_io IO061955 23.1000 82.4000 -1 23.1000 82.4000 TC 25 23.1030 82.3760 1 13 287
1955245N21090 1955 66 NI BB NOT_NAMED 1955-09-04 15:00:00 TS 23.2950 81.6949 main 0 0 P________PO___ IO061955 23.2925 81.6923 -1 23.2925 81.6923 TC 25 23.3000 81.7000 1 13 288
1955245N21090 1955 66 NI BB NOT_NAMED 1955-09-04 18:00:00 TS 23.5131 81.0099 main 0 0 O________OP___ jtwc_io IO061955 23.5000 81.0000 -1 23.5000 81.0000 TC 25 23.5393 81.0298 1 13 291
1955245N21090 1955 66 NI BB NOT_NAMED 1955-09-04 21:00:00 TS 23.7676 80.3640 main 0 0 P________PP___ IO061955 23.7574 80.3552 -1 23.7574 80.3552 TC 25 23.7881 80.3816 1 12 294
1955245N21090 1955 66 NI BB NOT_NAMED 1955-09-05 00:00:00 TS 24.0059 79.7975 main 0 0 O________OP___ jtwc_io IO061955 24.0000 79.8000 -1 24.0000 79.8000 TC 25 24.0177 79.7924 1 10 294
1955245N21090 1955 66 NI BB NOT_NAMED 1955-09-05 03:00:00 TS 24.1915 79.3316 main 0 0 P________PO___ IO061955 24.1873 79.3474 -1 24.1873 79.3474 TC 25 24.2000 79.3000 1 8 291
1955245N21090 1955 66 NI BB NOT_NAMED 1955-09-05 06:00:00 TS 24.2983 78.9813 main 0 0 O________OP___ jtwc_io IO061955 24.3000 79.0000 -1 24.3000 79.0000 TC 25 24.2948 78.9440 1 6 283
1955245N21090 1955 66 NI BB NOT_NAMED 1955-09-05 09:00:00 TS 24.3193 78.7085 main 0 0 P________PP___ IO061955 24.3074 78.7197 -1 24.3074 78.7197 TC 25 24.3433 78.6860 1 4 273
1955245N21090 1955 66 NI BB NOT_NAMED 1955-09-05 12:00:00 TS 24.3234 78.4950 main 0 0 O________OP___ jtwc_io IO061955 24.3000 78.5000 -1 24.3000 78.5000 TC 25 24.3702 78.4850 1 4 281
1955245N21090 1955 66 NI BB NOT_NAMED 1955-09-05 15:00:00 TS 24.3949 78.3000 main 0 0 P________PO___ IO061955 24.3924 78.3001 -1 24.3924 78.3001 TC 25 24.4000 78.3000 1 4 294
1955245N21090 1955 66 NI BB NOT_NAMED 1955-09-05 18:00:00 TS 24.4807 78.0990 main 0 0 O________OP___ jtwc_io IO061955 24.5000 78.1000 -1 24.5000 78.1000 TC 25 24.4516 78.0975 1 4 291
1955245N21090 1955 66 NI AS NOT_NAMED 1955-09-05 21:00:00 TS 24.5473 77.8682 main 0 0 P________PP___ IO061955 24.5651 77.8625 -1 24.5651 77.8625 TC 25 24.5234 77.8759 1 5 286
1955245N21090 1955 66 NI AS NOT_NAMED 1955-09-06 00:00:00 TS 24.6043 77.6206 main 0 0 O________OP___ jtwc_io IO061955 24.6000 77.6000 -1 24.6000 77.6000 TC 25 24.6085 77.6413 1 5 290
1955245N21090 1955 66 NI AS NOT_NAMED 1955-09-06 03:00:00 NR 24.7000 77.4000 main 0 __________O___ IO061955 -1 TC 24.7000 77.4000 1 4 295

IBTrACS Databaseについて

本データベースは、米国NOAAが公開する1842年以降の世界の熱帯低気圧のベストトラックデータアーカイブInternational Best Track Archive for Climate Stewardship (IBTrACS)を、ウェブで閲覧しやすい形式に変換したものです。

最終更新日:2021-11-26